createdAt,value
2018-05-29T00:01:19.549Z,65.17
2018-05-29T00:03:47.005Z,65.61
2018-05-29T00:06:14.545Z,66.25
2018-05-29T00:08:42.000Z,67.58
2018-05-29T00:11:09.439Z,68.24
2018-05-29T00:13:36.879Z,68.98
2018-05-29T00:16:04.450Z,68.83
2018-05-29T00:18:31.915Z,69.32
2018-05-29T00:20:59.381Z,69.74
2018-05-29T00:23:26.820Z,69.53
2018-05-29T00:25:54.297Z,69.79
2018-05-29T00:28:21.787Z,69.07
2018-05-29T00:30:49.262Z,68.05
2018-05-29T00:33:16.754Z,68.80
2018-05-29T00:35:44.191Z,66.63
2018-05-29T00:38:11.636Z,67.60
2018-05-29T00:40:39.117Z,67.32
2018-05-29T00:43:06.594Z,67.24
2018-05-29T00:45:34.036Z,67.16
2018-05-29T00:48:01.475Z,66.94
2018-05-29T00:50:28.937Z,67.18
2018-05-29T00:52:56.478Z,69.77
2018-05-29T00:55:35.757Z,67.14
2018-05-29T00:58:03.212Z,67.53
2018-05-29T01:00:30.661Z,68.59
2018-05-29T01:02:58.185Z,68.17
2018-05-29T01:05:25.733Z,68.94
2018-05-29T01:07:53.176Z,69.47
2018-05-29T01:10:20.734Z,69.42
2018-05-29T01:12:48.258Z,70.21
2018-05-29T01:15:15.684Z,69.96
2018-05-29T01:17:43.156Z,69.78
2018-05-29T01:20:10.616Z,69.72
2018-05-29T01:22:38.065Z,70.51
2018-05-29T01:25:05.533Z,70.37
2018-05-29T01:27:34.016Z,71.03
2018-05-29T01:30:01.452Z,70.79
2018-05-29T01:32:28.896Z,70.38
2018-05-29T01:34:56.361Z,71.60
2018-05-29T01:37:23.821Z,71.26
2018-05-29T01:39:51.254Z,71.52
2018-05-29T01:42:18.756Z,70.63
2018-05-29T01:44:46.224Z,70.47
2018-05-29T01:47:13.665Z,70.28
2018-05-29T01:49:41.153Z,70.31
2018-05-29T01:52:08.630Z,70.35
2018-05-29T01:54:36.146Z,69.96
2018-05-29T01:57:03.572Z,71.89
2018-05-29T01:59:31.038Z,70.48
2018-05-29T02:01:58.500Z,70.57
2018-05-29T02:04:26.349Z,71.22
2018-05-29T02:06:53.803Z,71.67
2018-05-29T02:09:21.331Z,72.12
2018-05-29T02:11:48.788Z,72.60
2018-05-29T02:14:16.261Z,72.42
2018-05-29T02:16:43.715Z,71.90
2018-05-29T02:19:11.154Z,72.38
2018-05-29T02:21:38.790Z,72.40
2018-05-29T02:24:06.238Z,71.86
2018-05-29T02:26:33.683Z,71.20
2018-05-29T02:29:01.230Z,71.07
2018-05-29T02:31:28.658Z,71.19
2018-05-29T02:33:56.112Z,72.42
2018-05-29T02:36:23.542Z,71.95
2018-05-29T02:38:50.995Z,71.04
2018-05-29T02:41:18.446Z,70.80
2018-05-29T02:43:45.872Z,71.08
2018-05-29T02:46:13.393Z,71.04
2018-05-29T02:48:40.866Z,71.29
2018-05-29T02:51:08.405Z,71.88
2018-05-29T02:53:35.850Z,71.54
2018-05-29T02:56:03.312Z,71.27
2018-05-29T02:58:30.766Z,71.25
2018-05-29T03:00:58.198Z,72.58
2018-05-29T03:03:25.669Z,71.97
2018-05-29T03:05:53.100Z,72.74
2018-05-29T03:08:20.557Z,72.61
2018-05-29T03:10:48.020Z,72.64
2018-05-29T03:13:15.465Z,72.37
2018-05-29T03:15:42.940Z,72.18
2018-05-29T03:18:10.389Z,72.79
2018-05-29T03:20:37.830Z,72.45
2018-05-29T03:23:05.334Z,73.39
2018-05-29T03:25:32.894Z,73.17
2018-05-29T03:28:00.335Z,72.98
2018-05-29T03:30:27.767Z,71.82
2018-05-29T03:32:55.219Z,71.44
2018-05-29T03:35:22.656Z,71.36
2018-05-29T03:37:50.160Z,71.59
2018-05-29T03:40:17.606Z,71.04
2018-05-29T03:42:45.064Z,72.29
2018-05-29T03:45:12.556Z,72.52
2018-05-29T03:47:40.009Z,71.52
2018-05-29T03:50:07.459Z,71.83
2018-05-29T03:52:34.915Z,70.92
2018-05-29T03:55:02.381Z,71.12
2018-05-29T03:57:29.810Z,71.32
2018-05-29T03:59:57.366Z,70.95
2018-05-29T04:02:24.818Z,71.80
2018-05-29T04:04:52.237Z,74.10
2018-05-29T04:07:19.694Z,71.51
2018-05-29T04:09:47.175Z,71.34
2018-05-29T04:12:14.670Z,71.40
2018-05-29T04:14:42.116Z,71.29
2018-05-29T04:17:09.604Z,71.31
2018-05-29T04:19:37.158Z,71.22
2018-05-29T04:22:04.740Z,73.63
2018-05-29T04:24:32.280Z,70.69
2018-05-29T04:26:59.722Z,70.95
2018-05-29T04:29:27.190Z,74.43
2018-05-29T04:31:54.738Z,74.68
2018-05-29T04:34:22.202Z,70.89
2018-05-29T04:36:49.653Z,69.44
2018-05-29T04:39:17.108Z,65.59
2018-05-29T04:41:44.681Z,67.79
2018-05-29T04:44:12.117Z,70.28
2018-05-29T04:46:39.590Z,69.40
2018-05-29T04:49:07.028Z,66.67
2018-05-29T04:51:34.465Z,68.48
2018-05-29T04:54:01.912Z,65.72
2018-05-29T04:56:29.465Z,67.06
2018-05-29T04:58:56.925Z,61.78
2018-05-29T05:01:24.368Z,66.33
2018-05-29T05:03:51.836Z,66.74
2018-05-29T05:06:19.318Z,64.04
2018-05-29T05:08:46.772Z,70.56
2018-05-29T05:11:14.242Z,63.44
2018-05-29T05:13:41.699Z,64.64
2018-05-29T05:16:09.185Z,64.73
2018-05-29T05:18:36.621Z,65.60
2018-05-29T05:21:04.089Z,66.82
2018-05-29T05:23:31.527Z,67.35
2018-05-29T05:25:59.011Z,71.89
2018-05-29T05:28:26.450Z,68.68
2018-05-29T05:30:53.906Z,65.48
2018-05-29T05:33:21.608Z,66.46
2018-05-29T05:35:49.049Z,65.97
2018-05-29T05:38:16.484Z,64.77
2018-05-29T05:40:44.023Z,64.25
2018-05-29T05:43:11.450Z,63.69
2018-05-29T05:45:38.900Z,60.67
2018-05-29T05:48:06.451Z,60.55
2018-05-29T05:50:33.932Z,60.08
2018-05-29T05:53:01.362Z,58.91
2018-05-29T05:55:28.892Z,58.80
2018-05-29T05:57:56.322Z,59.80
2018-05-29T06:00:23.783Z,58.68
2018-05-29T06:02:51.244Z,59.61
2018-05-29T06:05:18.691Z,59.86
2018-05-29T06:07:46.196Z,57.89
2018-05-29T06:10:13.758Z,59.25
2018-05-29T06:12:41.328Z,59.25
2018-05-29T06:15:08.773Z,58.77
2018-05-29T06:17:36.384Z,59.71
2018-05-29T06:20:03.831Z,59.52
2018-05-29T06:22:31.285Z,58.61
2018-05-29T06:24:58.735Z,57.74
2018-05-29T06:27:26.247Z,58.96
2018-05-29T06:29:53.737Z,58.70
2018-05-29T06:32:21.177Z,59.24
2018-05-29T06:34:48.827Z,58.78
2018-05-29T06:37:16.289Z,60.03
2018-05-29T06:39:43.772Z,62.00
2018-05-29T06:42:11.305Z,62.09
2018-05-29T06:44:38.795Z,62.15
2018-05-29T06:47:06.256Z,63.24
2018-05-29T06:49:33.737Z,63.10
2018-05-29T06:52:01.177Z,63.23
2018-05-29T06:54:28.650Z,62.65
2018-05-29T06:56:56.101Z,62.96
2018-05-29T06:59:23.536Z,63.72
2018-05-29T07:01:50.991Z,63.56
2018-05-29T07:04:18.456Z,63.91
2018-05-29T07:06:45.913Z,64.05
2018-05-29T07:09:30.421Z,64.57
2018-05-29T07:11:57.897Z,64.70
2018-05-29T07:14:25.458Z,65.20
2018-05-29T07:16:52.904Z,64.62
2018-05-29T07:19:20.449Z,64.71
2018-05-29T07:21:47.891Z,64.59
2018-05-29T07:24:15.367Z,63.78
2018-05-29T07:26:42.831Z,63.39
2018-05-29T07:29:10.286Z,63.30
2018-05-29T07:31:37.743Z,62.23
2018-05-29T07:34:05.202Z,60.84
2018-05-29T07:36:32.632Z,60.53
2018-05-29T07:39:00.074Z,58.94
2018-05-29T07:41:27.617Z,58.54
2018-05-29T07:43:55.099Z,58.04
2018-05-29T07:46:22.591Z,58.15
2018-05-29T07:48:50.035Z,56.91
2018-05-29T07:51:17.489Z,55.73
2018-05-29T07:53:45.070Z,56.41
2018-05-29T07:56:12.496Z,56.53
2018-05-29T07:58:39.929Z,56.95
2018-05-29T08:01:07.471Z,58.31
2018-05-29T08:03:35.016Z,57.51
2018-05-29T08:06:02.582Z,56.16
2018-05-29T08:08:30.129Z,54.91
2018-05-29T08:10:57.738Z,55.28
2018-05-29T08:13:25.239Z,55.93
2018-05-29T08:15:52.716Z,55.31
2018-05-29T08:18:20.253Z,53.61
2018-05-29T08:20:47.735Z,53.53
2018-05-29T08:23:15.203Z,53.47
2018-05-29T08:25:42.731Z,54.83
2018-05-29T08:28:10.182Z,53.58
2018-05-29T08:30:37.657Z,54.10
2018-05-29T08:33:05.115Z,54.76
2018-05-29T08:35:32.802Z,55.06
2018-05-29T08:38:00.301Z,54.75
2018-05-29T08:40:27.753Z,55.54
2018-05-29T08:42:55.218Z,56.30
2018-05-29T08:45:22.722Z,55.51
2018-05-29T08:47:50.264Z,54.87
2018-05-29T08:50:17.721Z,53.74
2018-05-29T08:52:45.272Z,55.54
2018-05-29T08:55:12.732Z,55.30
2018-05-29T08:57:40.191Z,55.45
2018-05-29T09:00:07.646Z,55.01
2018-05-29T09:02:35.127Z,54.66
2018-05-29T09:05:02.717Z,55.01
2018-05-29T09:07:30.237Z,54.49
2018-05-29T09:09:57.699Z,53.48
2018-05-29T09:12:25.151Z,53.09
2018-05-29T09:14:52.590Z,51.55
2018-05-29T09:17:20.017Z,52.08
2018-05-29T09:19:47.512Z,52.29
2018-05-29T09:22:15.003Z,52.62
2018-05-29T09:24:42.505Z,53.36
2018-05-29T09:27:09.953Z,54.46
2018-05-29T09:29:37.455Z,53.63
2018-05-29T09:32:04.977Z,53.73
2018-05-29T09:34:32.572Z,54.09
2018-05-29T09:37:00.103Z,54.71
2018-05-29T09:39:27.594Z,53.78
2018-05-29T09:41:55.153Z,52.14
2018-05-29T09:44:22.580Z,52.48
2018-05-29T09:46:50.013Z,52.68
2018-05-29T09:49:17.594Z,51.57
2018-05-29T09:51:45.087Z,52.15
2018-05-29T09:54:12.547Z,53.07
2018-05-29T09:56:40.216Z,52.29
2018-05-29T09:59:07.682Z,53.40
2018-05-29T10:01:35.128Z,53.38
2018-05-29T10:04:02.620Z,53.74
2018-05-29T10:06:30.193Z,54.70
2018-05-29T10:08:57.988Z,53.48
2018-05-29T10:11:25.540Z,53.12
2018-05-29T10:13:53.424Z,52.54
2018-05-29T10:16:21.320Z,51.79
2018-05-29T10:18:49.013Z,52.28
2018-05-29T10:21:16.454Z,51.49
2018-05-29T10:23:43.941Z,50.97
2018-05-29T10:26:11.419Z,50.56
2018-05-29T10:28:39.022Z,49.93
2018-05-29T10:31:06.508Z,49.70
2018-05-29T10:33:35.955Z,50.20
2018-05-29T10:36:03.407Z,49.30
2018-05-29T10:38:33.067Z,49.46
2018-05-29T10:41:00.529Z,48.39
2018-05-29T10:43:27.999Z,47.17
2018-05-29T10:45:55.492Z,47.03
2018-05-29T10:48:22.913Z,46.42
2018-05-29T10:50:50.449Z,47.01
2018-05-29T10:53:17.944Z,46.61
2018-05-29T10:55:45.433Z,46.76
2018-05-29T10:58:12.983Z,46.42
2018-05-29T11:00:40.537Z,45.46
2018-05-29T11:03:08.072Z,44.56
2018-05-29T11:05:35.580Z,43.10
2018-05-29T11:08:03.049Z,44.10
2018-05-29T11:10:30.575Z,44.42
2018-05-29T11:12:58.110Z,43.78
2018-05-29T11:15:25.836Z,44.12
2018-05-29T11:17:53.314Z,45.05
2018-05-29T11:20:20.931Z,44.35
2018-05-29T11:22:48.371Z,43.91
2018-05-29T11:25:15.805Z,44.06
2018-05-29T11:27:43.245Z,44.73
2018-05-29T11:30:10.677Z,43.80
2018-05-29T11:32:38.151Z,44.24
2018-05-29T11:35:05.581Z,45.27
2018-05-29T11:37:33.111Z,44.89
2018-05-29T11:40:00.573Z,45.79
2018-05-29T11:42:28.068Z,45.14
2018-05-29T11:44:55.511Z,42.71
2018-05-29T11:47:23.036Z,40.28
2018-05-29T11:49:50.519Z,40.16
2018-05-29T11:52:18.006Z,39.43
2018-05-29T11:54:46.433Z,39.73
2018-05-29T11:57:14.028Z,39.98
2018-05-29T11:59:41.521Z,40.20
2018-05-29T12:02:08.977Z,38.58
2018-05-29T12:04:36.448Z,37.13
2018-05-29T12:07:03.866Z,36.07
2018-05-29T12:09:31.333Z,36.78
2018-05-29T12:12:10.491Z,34.01
2018-05-29T12:14:38.032Z,31.89
2018-05-29T12:17:05.467Z,31.42
2018-05-29T12:19:32.931Z,32.95
2018-05-29T12:22:00.481Z,32.01
2018-05-29T12:24:27.942Z,32.59
2018-05-29T12:26:55.400Z,30.77
2018-05-29T12:29:22.837Z,31.23
2018-05-29T12:31:50.424Z,34.43
2018-05-29T12:34:17.935Z,34.86
2018-05-29T12:36:45.405Z,32.30
2018-05-29T12:39:13.005Z,33.44
2018-05-29T12:41:40.464Z,34.37
2018-05-29T12:46:34.636Z,36.42
2018-05-29T12:49:02.103Z,36.97
2018-05-29T12:51:29.572Z,34.99
2018-05-29T12:53:57.001Z,29.84
2018-05-29T12:56:24.488Z,28.89
2018-05-29T12:58:51.932Z,28.29
2018-05-29T13:01:19.409Z,27.97
2018-05-29T13:03:47.105Z,28.89
2018-05-29T13:06:14.610Z,32.09
2018-05-29T13:08:42.083Z,33.73
2018-05-29T13:11:09.535Z,36.89
2018-05-29T13:13:38.465Z,38.85
2018-05-29T13:16:05.894Z,41.38
2018-05-29T13:18:33.342Z,42.52
2018-05-29T13:21:00.788Z,43.97
2018-05-29T13:23:28.249Z,43.90
2018-05-29T13:25:55.685Z,44.70
2018-05-29T13:28:23.198Z,45.50
2018-05-29T13:30:50.681Z,43.37
2018-05-29T13:33:18.141Z,41.52
2018-05-29T13:35:45.596Z,39.86
2018-05-29T13:38:13.155Z,40.39
2018-05-29T13:40:40.678Z,40.47
2018-05-29T13:43:08.117Z,41.56
2018-05-29T13:45:35.576Z,43.58
2018-05-29T13:48:03.026Z,49.15
2018-05-29T13:50:30.494Z,48.63
2018-05-29T13:52:57.978Z,50.03
2018-05-29T13:55:25.453Z,48.60
2018-05-29T13:57:52.911Z,48.10
2018-05-29T14:00:20.360Z,47.31
2018-05-29T14:02:47.892Z,47.66
2018-05-29T14:05:15.373Z,48.48
2018-05-29T14:07:42.817Z,49.40
2018-05-29T14:10:10.278Z,49.84
2018-05-29T14:12:37.751Z,51.07
2018-05-29T14:15:05.249Z,56.14
2018-05-29T14:17:32.737Z,52.45
2018-05-29T14:20:00.197Z,54.29
2018-05-29T14:22:27.677Z,54.88
2018-05-29T14:24:55.182Z,56.52
2018-05-29T14:27:22.637Z,55.38
2018-05-29T14:29:50.095Z,55.57
2018-05-29T14:32:17.820Z,54.78
2018-05-29T14:34:45.337Z,56.66
2018-05-29T14:37:12.834Z,55.41
2018-05-29T14:39:40.279Z,54.51
2018-05-29T14:42:07.722Z,58.15
2018-05-29T14:44:35.192Z,56.06
2018-05-29T14:47:02.768Z,57.46
2018-05-29T14:49:30.225Z,55.76
2018-05-29T14:51:57.693Z,56.64
2018-05-29T14:54:25.320Z,54.97
2018-05-29T14:56:52.804Z,55.67
2018-05-29T14:59:20.447Z,57.29
2018-05-29T15:01:48.967Z,57.02
2018-05-29T15:04:16.422Z,53.81
2018-05-29T15:06:43.901Z,58.73
2018-05-29T15:09:11.683Z,54.27
2018-05-29T15:11:39.228Z,56.66
2018-05-29T15:14:06.726Z,62.25
2018-05-29T15:16:34.151Z,56.18
2018-05-29T15:19:01.729Z,58.12
2018-05-29T15:21:29.157Z,58.66
2018-05-29T15:23:56.690Z,54.58
2018-05-29T15:26:24.118Z,54.76
2018-05-29T15:28:51.655Z,52.89
2018-05-29T15:31:19.096Z,53.69
2018-05-29T15:33:46.543Z,51.59
2018-05-29T15:36:13.987Z,47.98
2018-05-29T15:38:41.869Z,42.93
2018-05-29T15:41:09.339Z,40.00
2018-05-29T15:43:36.842Z,35.24
2018-05-29T15:46:04.361Z,33.05
2018-05-29T15:48:31.846Z,33.99
2018-05-29T15:50:59.325Z,37.92
2018-05-29T15:53:26.820Z,40.50
2018-05-29T15:55:54.218Z,41.13
2018-05-29T15:58:21.661Z,42.83
2018-05-29T16:00:49.125Z,44.14
2018-05-29T16:03:16.588Z,45.64
2018-05-29T16:05:44.037Z,46.16
2018-05-29T16:08:11.494Z,45.62
2018-05-29T16:10:38.950Z,41.76
2018-05-29T16:13:06.399Z,39.17
2018-05-29T16:15:33.864Z,35.79
2018-05-29T16:18:01.333Z,32.01
2018-05-29T16:20:28.890Z,30.35
2018-05-29T16:22:56.371Z,28.18
2018-05-29T16:25:23.903Z,26.40
2018-05-29T16:27:51.342Z,26.01
2018-05-29T16:30:18.781Z,24.82
2018-05-29T16:32:46.529Z,23.85
2018-05-29T16:35:13.962Z,24.13
2018-05-29T16:37:41.434Z,23.64
2018-05-29T16:40:08.917Z,23.56
2018-05-29T16:42:36.382Z,23.53
2018-05-29T16:45:03.838Z,23.26
2018-05-29T16:47:31.333Z,23.36
2018-05-29T16:49:58.777Z,22.85
2018-05-29T16:52:26.239Z,22.76
2018-05-29T16:54:53.666Z,23.19
2018-05-29T16:57:21.159Z,23.49
2018-05-29T16:59:48.708Z,23.72
2018-05-29T17:02:16.192Z,24.14
2018-05-29T17:04:43.781Z,23.97
2018-05-29T17:07:11.304Z,23.82
2018-05-29T17:09:38.830Z,24.71
2018-05-29T17:12:06.288Z,25.18
2018-05-29T17:14:34.565Z,25.63
2018-05-29T17:17:02.025Z,25.69
2018-05-29T17:19:29.505Z,26.17
2018-05-29T17:21:57.137Z,26.73
2018-05-29T17:24:24.562Z,27.19
2018-05-29T17:26:52.001Z,27.14
2018-05-29T17:29:19.441Z,27.16
2018-05-29T17:31:46.881Z,27.19
2018-05-29T17:34:14.330Z,27.75
2018-05-29T17:36:42.060Z,27.63
2018-05-29T17:39:09.527Z,29.04
2018-05-29T17:41:37.030Z,30.05
2018-05-29T17:44:04.549Z,32.05
2018-05-29T17:46:32.045Z,32.61
2018-05-29T17:48:59.508Z,32.28
2018-05-29T17:51:27.069Z,32.55
2018-05-29T17:53:54.546Z,32.41
2018-05-29T17:56:22.028Z,33.03
2018-05-29T17:58:49.466Z,34.00
2018-05-29T18:01:16.935Z,35.88
2018-05-29T18:03:44.652Z,38.64
2018-05-29T18:06:12.150Z,39.87
2018-05-29T18:08:39.578Z,41.68
2018-05-29T18:11:07.020Z,43.66
2018-05-29T18:13:34.453Z,44.43
2018-05-29T18:16:01.912Z,45.68
2018-05-29T18:18:29.400Z,47.42
2018-05-29T18:20:56.930Z,48.98
2018-05-29T18:23:24.424Z,48.65
2018-05-29T18:25:51.977Z,48.84
2018-05-29T18:28:21.226Z,48.53
2018-05-29T18:30:49.027Z,49.65
2018-05-29T18:33:16.568Z,50.54
2018-05-29T18:35:44.008Z,51.72
2018-05-29T18:38:11.448Z,52.28
2018-05-29T18:40:38.967Z,52.83
2018-05-29T18:43:07.593Z,53.42
2018-05-29T18:45:35.065Z,53.95
2018-05-29T18:48:02.573Z,54.04
2018-05-29T18:50:30.060Z,55.23
2018-05-29T18:52:57.688Z,55.81
2018-05-29T18:55:25.190Z,56.55
2018-05-29T18:57:52.664Z,56.50
2018-05-29T19:00:20.132Z,57.96
2018-05-29T19:02:47.726Z,58.02
2018-05-29T19:05:15.270Z,58.72
2018-05-29T19:07:42.758Z,61.28
2018-05-29T19:10:10.214Z,61.27
2018-05-29T19:12:37.679Z,61.95
2018-05-29T19:15:05.265Z,61.59
2018-05-29T19:17:32.742Z,62.56
2018-05-29T19:20:00.949Z,62.59
2018-05-29T19:22:28.552Z,63.20
2018-05-29T19:24:56.012Z,64.20
2018-05-29T19:27:23.517Z,64.43
2018-05-29T19:29:51.188Z,63.73
2018-05-29T19:32:18.648Z,64.12
2018-05-29T19:34:46.202Z,65.14
2018-05-29T19:37:13.675Z,65.83
2018-05-29T19:39:41.153Z,66.83
2018-05-29T19:42:08.653Z,67.50
2018-05-29T19:44:39.161Z,67.67
2018-05-29T19:47:06.766Z,68.87
2018-05-29T19:49:34.228Z,69.05
2018-05-29T19:52:01.683Z,69.49
2018-05-29T19:54:29.185Z,69.98
2018-05-29T19:56:56.641Z,70.56
2018-05-29T19:59:24.178Z,70.59
2018-05-29T20:01:51.754Z,70.33
2018-05-29T20:04:19.217Z,70.64
2018-05-29T20:06:46.714Z,71.33
2018-05-29T20:09:14.222Z,71.51
2018-05-29T20:11:41.716Z,71.98
2018-05-29T20:14:09.159Z,72.11
2018-05-29T20:16:36.678Z,72.81
2018-05-29T20:19:04.275Z,72.84
2018-05-29T20:21:31.813Z,72.88
2018-05-29T20:23:59.298Z,72.98
2018-05-29T20:26:26.756Z,72.94
2018-05-29T20:28:54.235Z,73.03
2018-05-29T20:31:21.685Z,73.31
2018-05-29T20:33:49.136Z,73.98
2018-05-29T20:36:16.574Z,74.18
2018-05-29T20:38:44.296Z,74.27
2018-05-29T20:41:11.800Z,74.46
2018-05-29T20:43:39.423Z,74.20
2018-05-29T20:46:06.956Z,73.98
2018-05-29T20:48:34.480Z,74.15
2018-05-29T20:51:01.958Z,74.18
2018-05-29T20:53:29.399Z,74.67
2018-05-29T20:55:56.839Z,74.63
2018-05-29T20:58:24.413Z,74.76
2018-05-29T21:00:51.878Z,74.86
2018-05-29T21:03:20.841Z,74.99
2018-05-29T21:05:48.277Z,75.12
2018-05-29T21:08:15.729Z,75.14
2018-05-29T21:10:43.287Z,75.42
2018-05-29T21:13:10.756Z,75.87
2018-05-29T21:15:38.290Z,75.85
2018-05-29T21:18:05.745Z,76.22
2018-05-29T21:20:33.328Z,76.06
2018-05-29T21:23:00.846Z,76.57
2018-05-29T21:25:28.299Z,76.96
2018-05-29T21:27:55.745Z,77.33
2018-05-29T21:30:23.213Z,77.56
2018-05-29T21:32:50.641Z,77.63
2018-05-29T21:35:18.124Z,78.37
2018-05-29T21:37:45.609Z,78.97
2018-05-29T21:40:13.261Z,78.82
2018-05-29T21:42:40.681Z,78.95
2018-05-29T21:45:08.132Z,79.22
2018-05-29T21:47:35.585Z,79.51
2018-05-29T21:50:03.082Z,79.48
2018-05-29T21:52:30.536Z,80.87
2018-05-29T21:54:58.030Z,79.41
2018-05-29T21:57:25.511Z,77.13
2018-05-29T21:59:53.018Z,77.31
2018-05-29T22:02:20.468Z,79.32
2018-05-29T22:04:47.913Z,76.91
2018-05-29T22:07:15.364Z,77.05
2018-05-29T22:09:42.814Z,75.70
2018-05-29T22:12:11.034Z,77.10
2018-05-29T22:14:38.584Z,78.01
2018-05-29T22:17:06.140Z,78.95
2018-05-29T22:19:33.615Z,79.19
2018-05-29T22:22:01.061Z,79.57
2018-05-29T22:24:28.604Z,80.03
2018-05-29T22:26:56.030Z,80.11
2018-05-29T22:29:23.485Z,80.31
2018-05-29T22:31:50.921Z,80.47
2018-05-29T22:34:18.377Z,80.81
2018-05-29T22:36:45.916Z,81.17
2018-05-29T22:39:13.374Z,81.28
2018-05-29T22:41:40.916Z,81.91
2018-05-29T22:44:08.348Z,81.89
2018-05-29T22:46:35.824Z,81.95
2018-05-29T22:49:03.272Z,81.97
2018-05-29T22:51:30.774Z,81.91
2018-05-29T22:53:58.226Z,81.80
2018-05-29T22:56:26.819Z,82.30
2018-05-29T22:58:56.279Z,82.20
2018-05-29T23:01:24.662Z,82.43
2018-05-29T23:03:52.101Z,82.63
2018-05-29T23:06:19.548Z,82.68
2018-05-29T23:08:47.017Z,82.63
2018-05-29T23:11:14.549Z,82.93
2018-05-29T23:13:42.035Z,83.18
2018-05-29T23:16:09.484Z,82.90
2018-05-29T23:18:36.935Z,82.96
2018-05-29T23:21:04.384Z,83.56
2018-05-29T23:23:31.890Z,83.46
2018-05-29T23:25:59.338Z,83.75
2018-05-29T23:28:26.789Z,84.33
2018-05-29T23:30:54.259Z,84.66
2018-05-29T23:33:21.817Z,84.69
2018-05-29T23:35:49.271Z,84.54
2018-05-29T23:38:16.728Z,84.51
2018-05-29T23:40:44.169Z,85.13
2018-05-29T23:43:11.612Z,85.25
2018-05-29T23:45:39.074Z,85.03
2018-05-29T23:48:06.513Z,84.73
2018-05-29T23:50:33.999Z,84.79
2018-05-29T23:53:01.449Z,85.32
2018-05-29T23:55:28.899Z,84.99
2018-05-29T23:57:56.341Z,84.90
